sensor_id;sensor_type;location;lat;lon;timestamp;pressure;altitude;pressure_sealevel;temperature
19040;BMP180;9652;49.014;12.052;2023-11-21T00:02:27;97228.00;;;10.70
19040;BMP180;9652;49.014;12.052;2023-11-21T00:04:54;97189.00;;;10.70
19040;BMP180;9652;49.014;12.052;2023-11-21T00:07:21;97201.00;;;10.70
19040;BMP180;9652;49.014;12.052;2023-11-21T00:09:48;97252.00;;;10.70
19040;BMP180;9652;49.014;12.052;2023-11-21T00:12:15;97194.00;;;10.60
19040;BMP180;9652;49.014;12.052;2023-11-21T00:14:42;97158.00;;;10.60
19040;BMP180;9652;49.014;12.052;2023-11-21T00:17:10;97248.00;;;10.60
19040;BMP180;9652;49.014;12.052;2023-11-21T00:19:37;97255.00;;;10.30
19040;BMP180;9652;49.014;12.052;2023-11-21T00:22:04;97253.00;;;10.60
19040;BMP180;9652;49.014;12.052;2023-11-21T00:24:32;97267.00;;;10.60
19040;BMP180;9652;49.014;12.052;2023-11-21T00:26:59;97265.00;;;10.60
19040;BMP180;9652;49.014;12.052;2023-11-21T00:29:26;97219.00;;;10.60
19040;BMP180;9652;49.014;12.052;2023-11-21T00:31:54;97278.00;;;10.70
19040;BMP180;9652;49.014;12.052;2023-11-21T00:34:22;97267.00;;;10.70
19040;BMP180;9652;49.014;12.052;2023-11-21T00:36:49;97262.00;;;10.70
19040;BMP180;9652;49.014;12.052;2023-11-21T00:39:17;97262.00;;;10.70
19040;BMP180;9652;49.014;12.052;2023-11-21T00:41:44;97231.00;;;10.70
19040;BMP180;9652;49.014;12.052;2023-11-21T00:44:11;97260.00;;;10.70
19040;BMP180;9652;49.014;12.052;2023-11-21T00:46:38;97267.00;;;10.80
19040;BMP180;9652;49.014;12.052;2023-11-21T00:49:05;97273.00;;;10.80
19040;BMP180;9652;49.014;12.052;2023-11-21T00:51:34;97270.00;;;10.80
19040;BMP180;9652;49.014;12.052;2023-11-21T00:54:02;97190.00;;;10.80
19040;BMP180;9652;49.014;12.052;2023-11-21T00:56:29;97270.00;;;10.80
19040;BMP180;9652;49.014;12.052;2023-11-21T00:58:57;97297.00;;;10.90
19040;BMP180;9652;49.014;12.052;2023-11-21T01:01:24;97270.00;;;10.90
19040;BMP180;9652;49.014;12.052;2023-11-21T01:03:52;97277.00;;;10.90
19040;BMP180;9652;49.014;12.052;2023-11-21T01:06:20;97213.00;;;10.90
19040;BMP180;9652;49.014;12.052;2023-11-21T01:08:49;97269.00;;;10.90
19040;BMP180;9652;49.014;12.052;2023-11-21T01:11:16;97275.00;;;10.90
19040;BMP180;9652;49.014;12.052;2023-11-21T01:13:43;97243.00;;;10.90
19040;BMP180;9652;49.014;12.052;2023-11-21T01:16:11;97279.00;;;10.90
19040;BMP180;9652;49.014;12.052;2023-11-21T01:18:40;97256.00;;;10.90
19040;BMP180;9652;49.014;12.052;2023-11-21T01:21:07;97296.00;;;10.90
19040;BMP180;9652;49.014;12.052;2023-11-21T01:23:34;97247.00;;;10.90
19040;BMP180;9652;49.014;12.052;2023-11-21T01:26:03;97268.00;;;10.90
19040;BMP180;9652;49.014;12.052;2023-11-21T01:28:30;97267.00;;;10.90
19040;BMP180;9652;49.014;12.052;2023-11-21T01:30:57;97266.00;;;10.80
19040;BMP180;9652;49.014;12.052;2023-11-21T01:33:25;97266.00;;;10.80
19040;BMP180;9652;49.014;12.052;2023-11-21T01:35:52;97259.00;;;10.80
19040;BMP180;9652;49.014;12.052;2023-11-21T01:38:21;97254.00;;;10.80
19040;BMP180;9652;49.014;12.052;2023-11-21T01:40:48;97246.00;;;10.80
19040;BMP180;9652;49.014;12.052;2023-11-21T01:43:16;97279.00;;;10.70
19040;BMP180;9652;49.014;12.052;2023-11-21T01:45:44;97265.00;;;10.70
19040;BMP180;9652;49.014;12.052;2023-11-21T01:48:13;97252.00;;;10.70
19040;BMP180;9652;49.014;12.052;2023-11-21T01:50:42;97273.00;;;10.70
19040;BMP180;9652;49.014;12.052;2023-11-21T01:53:12;97267.00;;;10.70
19040;BMP180;9652;49.014;12.052;2023-11-21T01:55:41;97268.00;;;10.70
19040;BMP180;9652;49.014;12.052;2023-11-21T01:58:10;97261.00;;;10.70
19040;BMP180;9652;49.014;12.052;2023-11-21T02:00:39;97268.00;;;10.70
19040;BMP180;9652;49.014;12.052;2023-11-21T02:03:07;97220.00;;;10.70
19040;BMP180;9652;49.014;12.052;2023-11-21T02:05:36;97275.00;;;10.70
19040;BMP180;9652;49.014;12.052;2023-11-21T02:08:04;97270.00;;;10.70
19040;BMP180;9652;49.014;12.052;2023-11-21T02:10:32;97268.00;;;10.70
19040;BMP180;9652;49.014;12.052;2023-11-21T02:12:59;97274.00;;;10.70
19040;BMP180;9652;49.014;12.052;2023-11-21T02:15:28;97259.00;;;10.70
19040;BMP180;9652;49.014;12.052;2023-11-21T02:17:57;97262.00;;;10.80
19040;BMP180;9652;49.014;12.052;2023-11-21T02:20:24;97263.00;;;10.70
19040;BMP180;9652;49.014;12.052;2023-11-21T02:22:57;97266.00;;;10.80
19040;BMP180;9652;49.014;12.052;2023-11-21T02:25:25;97256.00;;;10.80
19040;BMP180;9652;49.014;12.052;2023-11-21T02:27:53;97252.00;;;10.80
19040;BMP180;9652;49.014;12.052;2023-11-21T02:30:21;97229.00;;;10.80
19040;BMP180;9652;49.014;12.052;2023-11-21T02:32:48;97264.00;;;10.80
19040;BMP180;9652;49.014;12.052;2023-11-21T02:35:15;97253.00;;;10.80
19040;BMP180;9652;49.014;12.052;2023-11-21T02:37:42;97247.00;;;10.80
19040;BMP180;9652;49.014;12.052;2023-11-21T02:40:12;97235.00;;;10.80
19040;BMP180;9652;49.014;12.052;2023-11-21T02:42:43;97244.00;;;10.80
19040;BMP180;9652;49.014;12.052;2023-11-21T02:45:11;97247.00;;;10.80
19040;BMP180;9652;49.014;12.052;2023-11-21T02:47:39;97244.00;;;10.80
19040;BMP180;9652;49.014;12.052;2023-11-21T02:50:07;97239.00;;;10.80
19040;BMP180;9652;49.014;12.052;2023-11-21T02:52:35;97232.00;;;10.80
19040;BMP180;9652;49.014;12.052;2023-11-21T02:55:02;97235.00;;;10.80
19040;BMP180;9652;49.014;12.052;2023-11-21T02:57:31;97170.00;;;10.80
19040;BMP180;9652;49.014;12.052;2023-11-21T02:59:58;97220.00;;;10.80
19040;BMP180;9652;49.014;12.052;2023-11-21T03:02:25;97217.00;;;10.80
19040;BMP180;9652;49.014;12.052;2023-11-21T03:04:53;97228.00;;;10.80
19040;BMP180;9652;49.014;12.052;2023-11-21T03:07:20;97236.00;;;10.80
19040;BMP180;9652;49.014;12.052;2023-11-21T03:09:47;97228.00;;;10.80
19040;BMP180;9652;49.014;12.052;2023-11-21T03:12:14;97228.00;;;10.80
19040;BMP180;9652;49.014;12.052;2023-11-21T03:14:43;97220.00;;;10.80
19040;BMP180;9652;49.014;12.052;2023-11-21T03:17:10;97230.00;;;10.30
19040;BMP180;9652;49.014;12.052;2023-11-21T03:19:37;97194.00;;;10.80
19040;BMP180;9652;49.014;12.052;2023-11-21T03:22:04;97227.00;;;10.80
19040;BMP180;9652;49.014;12.052;2023-11-21T03:24:31;97156.00;;;10.80
19040;BMP180;9652;49.014;12.052;2023-11-21T03:26:59;97218.00;;;10.70
19040;BMP180;9652;49.014;12.052;2023-11-21T03:29:26;97195.00;;;10.70
19040;BMP180;9652;49.014;12.052;2023-11-21T03:31:54;97234.00;;;10.70
19040;BMP180;9652;49.014;12.052;2023-11-21T03:34:25;97214.00;;;10.70
19040;BMP180;9652;49.014;12.052;2023-11-21T03:36:52;97172.00;;;10.70
19040;BMP180;9652;49.014;12.052;2023-11-21T03:39:20;97225.00;;;10.70
19040;BMP180;9652;49.014;12.052;2023-11-21T03:41:49;97224.00;;;10.70
19040;BMP180;9652;49.014;12.052;2023-11-21T03:44:18;97226.00;;;10.70
19040;BMP180;9652;49.014;12.052;2023-11-21T03:46:45;97225.00;;;10.70
19040;BMP180;9652;49.014;12.052;2023-11-21T03:49:13;97210.00;;;10.70
19040;BMP180;9652;49.014;12.052;2023-11-21T03:51:41;97219.00;;;10.70
19040;BMP180;9652;49.014;12.052;2023-11-21T03:54:08;97215.00;;;10.70
19040;BMP180;9652;49.014;12.052;2023-11-21T03:56:39;97230.00;;;10.70
19040;BMP180;9652;49.014;12.052;2023-11-21T03:59:06;97236.00;;;10.70
19040;BMP180;9652;49.014;12.052;2023-11-21T04:01:33;97231.00;;;10.70
19040;BMP180;9652;49.014;12.052;2023-11-21T04:04:00;97243.00;;;10.60
19040;BMP180;9652;49.014;12.052;2023-11-21T04:06:28;97212.00;;;10.60
19040;BMP180;9652;49.014;12.052;2023-11-21T04:08:55;97235.00;;;10.60
19040;BMP180;9652;49.014;12.052;2023-11-21T04:11:22;97234.00;;;10.60
19040;BMP180;9652;49.014;12.052;2023-11-21T04:13:50;97240.00;;;10.60
19040;BMP180;9652;49.014;12.052;2023-11-21T04:16:17;97234.00;;;10.60
19040;BMP180;9652;49.014;12.052;2023-11-21T04:18:44;97229.00;;;10.50
19040;BMP180;9652;49.014;12.052;2023-11-21T04:21:11;97241.00;;;10.50
19040;BMP180;9652;49.014;12.052;2023-11-21T04:23:39;97238.00;;;10.50
19040;BMP180;9652;49.014;12.052;2023-11-21T04:26:07;97246.00;;;10.50
19040;BMP180;9652;49.014;12.052;2023-11-21T04:28:34;97242.00;;;10.50
19040;BMP180;9652;49.014;12.052;2023-11-21T04:31:01;97242.00;;;10.60
19040;BMP180;9652;49.014;12.052;2023-11-21T04:33:28;97256.00;;;10.60
19040;BMP180;9652;49.014;12.052;2023-11-21T04:35:56;97247.00;;;10.60
19040;BMP180;9652;49.014;12.052;2023-11-21T04:38:23;97262.00;;;10.60
19040;BMP180;9652;49.014;12.052;2023-11-21T04:40:51;97259.00;;;10.60
19040;BMP180;9652;49.014;12.052;2023-11-21T04:43:19;97255.00;;;10.60
19040;BMP180;9652;49.014;12.052;2023-11-21T04:45:46;97249.00;;;10.60
19040;BMP180;9652;49.014;12.052;2023-11-21T04:48:13;97184.00;;;10.60
19040;BMP180;9652;49.014;12.052;2023-11-21T04:50:40;97241.00;;;10.60
19040;BMP180;9652;49.014;12.052;2023-11-21T04:53:07;97243.00;;;10.70
19040;BMP180;9652;49.014;12.052;2023-11-21T04:55:34;97240.00;;;10.70
19040;BMP180;9652;49.014;12.052;2023-11-21T04:58:02;97252.00;;;10.70
19040;BMP180;9652;49.014;12.052;2023-11-21T05:00:30;97247.00;;;10.70
19040;BMP180;9652;49.014;12.052;2023-11-21T05:02:57;97244.00;;;10.60
19040;BMP180;9652;49.014;12.052;2023-11-21T05:05:24;97242.00;;;10.70
19040;BMP180;9652;49.014;12.052;2023-11-21T05:07:51;97243.00;;;10.70
19040;BMP180;9652;49.014;12.052;2023-11-21T05:10:19;97238.00;;;10.70
19040;BMP180;9652;49.014;12.052;2023-11-21T05:12:46;97238.00;;;10.70
19040;BMP180;9652;49.014;12.052;2023-11-21T05:15:16;97254.00;;;10.60
19040;BMP180;9652;49.014;12.052;2023-11-21T05:17:45;97243.00;;;10.60
19040;BMP180;9652;49.014;12.052;2023-11-21T05:20:16;97247.00;;;10.60
19040;BMP180;9652;49.014;12.052;2023-11-21T05:22:46;97252.00;;;10.60
19040;BMP180;9652;49.014;12.052;2023-11-21T05:25:14;97205.00;;;10.60
19040;BMP180;9652;49.014;12.052;2023-11-21T05:27:42;97228.00;;;10.60
19040;BMP180;9652;49.014;12.052;2023-11-21T05:30:11;97240.00;;;10.50
19040;BMP180;9652;49.014;12.052;2023-11-21T05:32:40;97246.00;;;10.50
19040;BMP180;9652;49.014;12.052;2023-11-21T05:35:09;97248.00;;;10.50
19040;BMP180;9652;49.014;12.052;2023-11-21T05:37:39;97185.00;;;10.40
19040;BMP180;9652;49.014;12.052;2023-11-21T05:40:08;97255.00;;;10.40
19040;BMP180;9652;49.014;12.052;2023-11-21T05:42:36;97259.00;;;10.40
19040;BMP180;9652;49.014;12.052;2023-11-21T05:45:05;97257.00;;;10.40
19040;BMP180;9652;49.014;12.052;2023-11-21T05:47:39;97261.00;;;10.40
19040;BMP180;9652;49.014;12.052;2023-11-21T05:50:08;97234.00;;;10.40
19040;BMP180;9652;49.014;12.052;2023-11-21T05:52:38;97259.00;;;10.40
19040;BMP180;9652;49.014;12.052;2023-11-21T05:55:06;97280.00;;;10.40
19040;BMP180;9652;49.014;12.052;2023-11-21T05:57:34;97273.00;;;10.40
19040;BMP180;9652;49.014;12.052;2023-11-21T06:00:04;97270.00;;;10.40
19040;BMP180;9652;49.014;12.052;2023-11-21T06:02:39;97280.00;;;10.40
19040;BMP180;9652;49.014;12.052;2023-11-21T06:05:07;97245.00;;;10.50
19040;BMP180;9652;49.014;12.052;2023-11-21T06:07:35;97248.00;;;10.50
19040;BMP180;9652;49.014;12.052;2023-11-21T06:10:02;97280.00;;;10.50
19040;BMP180;9652;49.014;12.052;2023-11-21T06:12:32;97275.00;;;10.50
19040;BMP180;9652;49.014;12.052;2023-11-21T06:15:02;97283.00;;;10.50
19040;BMP180;9652;49.014;12.052;2023-11-21T06:17:31;97287.00;;;10.50
19040;BMP180;9652;49.014;12.052;2023-11-21T06:19:59;97290.00;;;10.50
19040;BMP180;9652;49.014;12.052;2023-11-21T06:22:26;97284.00;;;10.50
19040;BMP180;9652;49.014;12.052;2023-11-21T06:24:53;97265.00;;;10.50
19040;BMP180;9652;49.014;12.052;2023-11-21T06:27:20;97289.00;;;10.50
19040;BMP180;9652;49.014;12.052;2023-11-21T06:29:50;97290.00;;;10.50
19040;BMP180;9652;49.014;12.052;2023-11-21T06:32:17;97286.00;;;10.50
19040;BMP180;9652;49.014;12.052;2023-11-21T06:34:46;97287.00;;;10.50
19040;BMP180;9652;49.014;12.052;2023-11-21T06:37:14;97300.00;;;10.60
19040;BMP180;9652;49.014;12.052;2023-11-21T06:39:42;97297.00;;;10.60
19040;BMP180;9652;49.014;12.052;2023-11-21T06:42:09;97293.00;;;10.60
19040;BMP180;9652;49.014;12.052;2023-11-21T06:44:36;97295.00;;;10.60
19040;BMP180;9652;49.014;12.052;2023-11-21T06:47:04;97300.00;;;10.60
19040;BMP180;9652;49.014;12.052;2023-11-21T06:49:31;97307.00;;;10.60
19040;BMP180;9652;49.014;12.052;2023-11-21T06:51:58;97301.00;;;10.60
19040;BMP180;9652;49.014;12.052;2023-11-21T06:54:31;97307.00;;;10.60
19040;BMP180;9652;49.014;12.052;2023-11-21T06:56:58;97316.00;;;10.60
19040;BMP180;9652;49.014;12.052;2023-11-21T06:59:25;97310.00;;;10.70
19040;BMP180;9652;49.014;12.052;2023-11-21T07:01:53;97320.00;;;10.70
19040;BMP180;9652;49.014;12.052;2023-11-21T07:04:20;97313.00;;;10.70
19040;BMP180;9652;49.014;12.052;2023-11-21T07:06:47;97292.00;;;10.70
19040;BMP180;9652;49.014;12.052;2023-11-21T07:09:14;97344.00;;;10.70
19040;BMP180;9652;49.014;12.052;2023-11-21T07:11:42;97334.00;;;10.80
19040;BMP180;9652;49.014;12.052;2023-11-21T07:14:09;97318.00;;;10.80
19040;BMP180;9652;49.014;12.052;2023-11-21T07:16:38;97324.00;;;10.80
19040;BMP180;9652;49.014;12.052;2023-11-21T07:19:05;97281.00;;;10.80
19040;BMP180;9652;49.014;12.052;2023-11-21T07:21:33;97321.00;;;10.90
19040;BMP180;9652;49.014;12.052;2023-11-21T07:24:00;97331.00;;;10.90
19040;BMP180;9652;49.014;12.052;2023-11-21T07:26:27;97325.00;;;10.90
19040;BMP180;9652;49.014;12.052;2023-11-21T07:28:56;97330.00;;;10.90
19040;BMP180;9652;49.014;12.052;2023-11-21T07:31:23;97323.00;;;11.00
19040;BMP180;9652;49.014;12.052;2023-11-21T07:33:51;97334.00;;;11.00
19040;BMP180;9652;49.014;12.052;2023-11-21T07:36:19;97344.00;;;11.00
19040;BMP180;9652;49.014;12.052;2023-11-21T07:38:46;97283.00;;;11.00
19040;BMP180;9652;49.014;12.052;2023-11-21T07:41:14;97340.00;;;11.10
19040;BMP180;9652;49.014;12.052;2023-11-21T07:43:42;97345.00;;;11.10
19040;BMP180;9652;49.014;12.052;2023-11-21T07:46:11;97349.00;;;11.10
19040;BMP180;9652;49.014;12.052;2023-11-21T07:48:39;97346.00;;;11.10
19040;BMP180;9652;49.014;12.052;2023-11-21T07:51:07;97348.00;;;11.10
19040;BMP180;9652;49.014;12.052;2023-11-21T07:53:34;97341.00;;;11.10
19040;BMP180;9652;49.014;12.052;2023-11-21T07:56:04;97333.00;;;11.20
19040;BMP180;9652;49.014;12.052;2023-11-21T07:58:31;97354.00;;;11.20
19040;BMP180;9652;49.014;12.052;2023-11-21T08:00:59;97350.00;;;11.20
19040;BMP180;9652;49.014;12.052;2023-11-21T08:03:28;97351.00;;;11.20
19040;BMP180;9652;49.014;12.052;2023-11-21T08:05:55;97354.00;;;11.30
19040;BMP180;9652;49.014;12.052;2023-11-21T08:08:23;97358.00;;;11.30
19040;BMP180;9652;49.014;12.052;2023-11-21T08:10:50;97352.00;;;11.40
19040;BMP180;9652;49.014;12.052;2023-11-21T08:13:22;97350.00;;;11.40
19040;BMP180;9652;49.014;12.052;2023-11-21T08:15:50;97348.00;;;11.50
19040;BMP180;9652;49.014;12.052;2023-11-21T08:18:17;97351.00;;;11.50
19040;BMP180;9652;49.014;12.052;2023-11-21T08:20:46;97354.00;;;11.60
19040;BMP180;9652;49.014;12.052;2023-11-21T08:23:14;97334.00;;;11.60
19040;BMP180;9652;49.014;12.052;2023-11-21T08:25:43;97371.00;;;11.60
19040;BMP180;9652;49.014;12.052;2023-11-21T08:28:10;97363.00;;;11.70
19040;BMP180;9652;49.014;12.052;2023-11-21T08:30:37;97350.00;;;11.80
19040;BMP180;9652;49.014;12.052;2023-11-21T08:33:05;97372.00;;;11.80
19040;BMP180;9652;49.014;12.052;2023-11-21T08:35:32;97373.00;;;11.80
19040;BMP180;9652;49.014;12.052;2023-11-21T08:38:02;97355.00;;;11.90
19040;BMP180;9652;49.014;12.052;2023-11-21T08:40:30;97367.00;;;11.90
19040;BMP180;9652;49.014;12.052;2023-11-21T08:42:57;97354.00;;;12.00
19040;BMP180;9652;49.014;12.052;2023-11-21T08:45:25;97382.00;;;12.00
19040;BMP180;9652;49.014;12.052;2023-11-21T08:47:52;97382.00;;;12.00
19040;BMP180;9652;49.014;12.052;2023-11-21T08:50:20;97382.00;;;12.10
19040;BMP180;9652;49.014;12.052;2023-11-21T08:52:47;97385.00;;;12.20
19040;BMP180;9652;49.014;12.052;2023-11-21T08:55:16;97375.00;;;12.20
19040;BMP180;9652;49.014;12.052;2023-11-21T08:57:46;97373.00;;;12.00
19040;BMP180;9652;49.014;12.052;2023-11-21T09:00:14;97390.00;;;12.30
19040;BMP180;9652;49.014;12.052;2023-11-21T09:02:43;97380.00;;;12.30
19040;BMP180;9652;49.014;12.052;2023-11-21T09:05:11;97385.00;;;12.40
19040;BMP180;9652;49.014;12.052;2023-11-21T09:07:40;97404.00;;;12.40
19040;BMP180;9652;49.014;12.052;2023-11-21T09:10:08;97416.00;;;12.50
19040;BMP180;9652;49.014;12.052;2023-11-21T09:12:37;97397.00;;;12.50
19040;BMP180;9652;49.014;12.052;2023-11-21T09:15:06;97404.00;;;12.60
19040;BMP180;9652;49.014;12.052;2023-11-21T09:17:35;97405.00;;;12.70
19040;BMP180;9652;49.014;12.052;2023-11-21T09:20:03;97408.00;;;12.70
19040;BMP180;9652;49.014;12.052;2023-11-21T09:22:31;97408.00;;;12.70
19040;BMP180;9652;49.014;12.052;2023-11-21T09:24:58;97416.00;;;12.70
19040;BMP180;9652;49.014;12.052;2023-11-21T09:27:25;97412.00;;;12.80
19040;BMP180;9652;49.014;12.052;2023-11-21T09:29:54;97385.00;;;12.80
19040;BMP180;9652;49.014;12.052;2023-11-21T09:32:21;97402.00;;;12.80
19040;BMP180;9652;49.014;12.052;2023-11-21T09:34:48;97415.00;;;12.80
19040;BMP180;9652;49.014;12.052;2023-11-21T09:37:16;97415.00;;;12.90
19040;BMP180;9652;49.014;12.052;2023-11-21T09:39:43;97417.00;;;12.90
19040;BMP180;9652;49.014;12.052;2023-11-21T09:42:13;97401.00;;;13.00
19040;BMP180;9652;49.014;12.052;2023-11-21T09:44:50;97422.00;;;13.00
19040;BMP180;9652;49.014;12.052;2023-11-21T09:47:21;97408.00;;;13.10
19040;BMP180;9652;49.014;12.052;2023-11-21T09:49:49;97417.00;;;13.10
19040;BMP180;9652;49.014;12.052;2023-11-21T09:52:25;97358.00;;;13.00
19040;BMP180;9652;49.014;12.052;2023-11-21T09:54:54;97391.00;;;13.20
19040;BMP180;9652;49.014;12.052;2023-11-21T09:57:24;97385.00;;;13.30
19040;BMP180;9652;49.014;12.052;2023-11-21T09:59:53;97425.00;;;13.30
19040;BMP180;9652;49.014;12.052;2023-11-21T10:02:28;97420.00;;;13.30
19040;BMP180;9652;49.014;12.052;2023-11-21T10:04:56;97409.00;;;13.30
19040;BMP180;9652;49.014;12.052;2023-11-21T10:07:26;97425.00;;;13.30
19040;BMP180;9652;49.014;12.052;2023-11-21T10:09:55;97407.00;;;13.30
19040;BMP180;9652;49.014;12.052;2023-11-21T10:12:24;97416.00;;;13.30
19040;BMP180;9652;49.014;12.052;2023-11-21T10:14:54;97416.00;;;13.30
19040;BMP180;9652;49.014;12.052;2023-11-21T10:17:29;97419.00;;;13.30
19040;BMP180;9652;49.014;12.052;2023-11-21T10:20:05;97409.00;;;13.30
19040;BMP180;9652;49.014;12.052;2023-11-21T10:22:38;97410.00;;;13.30
19040;BMP180;9652;49.014;12.052;2023-11-21T10:25:07;97410.00;;;13.30
19040;BMP180;9652;49.014;12.052;2023-11-21T10:27:35;97409.00;;;13.30
19040;BMP180;9652;49.014;12.052;2023-11-21T10:30:02;97408.00;;;13.30
19040;BMP180;9652;49.014;12.052;2023-11-21T10:32:31;97427.00;;;13.30
19040;BMP180;9652;49.014;12.052;2023-11-21T10:34:59;97365.00;;;13.30
19040;BMP180;9652;49.014;12.052;2023-11-21T10:37:32;97414.00;;;13.30
19040;BMP180;9652;49.014;12.052;2023-11-21T10:39:59;97396.00;;;13.30
19040;BMP180;9652;49.014;12.052;2023-11-21T10:42:26;97397.00;;;13.40
19040;BMP180;9652;49.014;12.052;2023-11-21T10:44:54;97407.00;;;13.40
19040;BMP180;9652;49.014;12.052;2023-11-21T10:47:22;97396.00;;;13.50
19040;BMP180;9652;49.014;12.052;2023-11-21T10:49:51;97410.00;;;13.50
19040;BMP180;9652;49.014;12.052;2023-11-21T10:52:19;97352.00;;;13.60
19040;BMP180;9652;49.014;12.052;2023-11-21T10:54:47;97395.00;;;13.70
19040;BMP180;9652;49.014;12.052;2023-11-21T10:57:18;97414.00;;;13.70
19040;BMP180;9652;49.014;12.052;2023-11-21T10:59:47;97416.00;;;13.70
19040;BMP180;9652;49.014;12.052;2023-11-21T11:02:23;97416.00;;;13.70
19040;BMP180;9652;49.014;12.052;2023-11-21T11:04:54;97411.00;;;13.70
19040;BMP180;9652;49.014;12.052;2023-11-21T11:07:27;97426.00;;;13.70
19040;BMP180;9652;49.014;12.052;2023-11-21T11:09:58;97421.00;;;13.80
19040;BMP180;9652;49.014;12.052;2023-11-21T11:12:25;97379.00;;;13.80
19040;BMP180;9652;49.014;12.052;2023-11-21T11:14:56;97398.00;;;13.80
19040;BMP180;9652;49.014;12.052;2023-11-21T11:17:24;97350.00;;;13.80
19040;BMP180;9652;49.014;12.052;2023-11-21T11:19:51;97416.00;;;13.80
19040;BMP180;9652;49.014;12.052;2023-11-21T11:22:42;97403.00;;;13.70
19040;BMP180;9652;49.014;12.052;2023-11-21T11:25:38;97404.00;;;13.70
19040;BMP180;9652;49.014;12.052;2023-11-21T11:28:15;97417.00;;;13.70
19040;BMP180;9652;49.014;12.052;2023-11-21T11:30:58;97393.00;;;13.60
19040;BMP180;9652;49.014;12.052;2023-11-21T11:33:37;97407.00;;;13.60
19040;BMP180;9652;49.014;12.052;2023-11-21T11:36:17;97391.00;;;13.60
19040;BMP180;9652;49.014;12.052;2023-11-21T11:38:47;97408.00;;;13.60
19040;BMP180;9652;49.014;12.052;2023-11-21T11:41:25;97412.00;;;13.60
19040;BMP180;9652;49.014;12.052;2023-11-21T11:43:53;97411.00;;;13.60
19040;BMP180;9652;49.014;12.052;2023-11-21T11:46:20;97409.00;;;13.70
19040;BMP180;9652;49.014;12.052;2023-11-21T11:48:48;97408.00;;;13.70
19040;BMP180;9652;49.014;12.052;2023-11-21T11:51:29;97417.00;;;13.70
19040;BMP180;9652;49.014;12.052;2023-11-21T11:53:58;97407.00;;;13.80
19040;BMP180;9652;49.014;12.052;2023-11-21T11:56:27;97420.00;;;13.80
19040;BMP180;9652;49.014;12.052;2023-11-21T11:58:57;97423.00;;;13.80
19040;BMP180;9652;49.014;12.052;2023-11-21T12:01:26;97446.00;;;13.80
19040;BMP180;9652;49.014;12.052;2023-11-21T12:04:24;97417.00;;;13.70
19040;BMP180;9652;49.014;12.052;2023-11-21T12:07:00;97413.00;;;13.60
19040;BMP180;9652;49.014;12.052;2023-11-21T12:09:31;97406.00;;;13.60
19040;BMP180;9652;49.014;12.052;2023-11-21T12:11:59;97403.00;;;13.60
19040;BMP180;9652;49.014;12.052;2023-11-21T12:14:26;97420.00;;;13.60
19040;BMP180;9652;49.014;12.052;2023-11-21T12:16:54;97393.00;;;13.60
19040;BMP180;9652;49.014;12.052;2023-11-21T12:19:22;97410.00;;;13.50
19040;BMP180;9652;49.014;12.052;2023-11-21T12:21:49;97425.00;;;13.50
19040;BMP180;9652;49.014;12.052;2023-11-21T12:24:18;97415.00;;;13.60
19040;BMP180;9652;49.014;12.052;2023-11-21T12:26:46;97410.00;;;13.60
19040;BMP180;9652;49.014;12.052;2023-11-21T12:29:13;97404.00;;;13.60
19040;BMP180;9652;49.014;12.052;2023-11-21T12:31:42;97402.00;;;13.70
19040;BMP180;9652;49.014;12.052;2023-11-21T12:34:11;97408.00;;;13.70
19040;BMP180;9652;49.014;12.052;2023-11-21T12:36:39;97415.00;;;13.70
19040;BMP180;9652;49.014;12.052;2023-11-21T12:39:06;97421.00;;;13.70
19040;BMP180;9652;49.014;12.052;2023-11-21T12:41:35;97411.00;;;13.70
19040;BMP180;9652;49.014;12.052;2023-11-21T12:44:04;97423.00;;;13.70
19040;BMP180;9652;49.014;12.052;2023-11-21T12:46:42;97433.00;;;13.70
19040;BMP180;9652;49.014;12.052;2023-11-21T12:49:11;97433.00;;;13.60
19040;BMP180;9652;49.014;12.052;2023-11-21T12:51:44;97430.00;;;13.60
19040;BMP180;9652;49.014;12.052;2023-11-21T12:54:12;97428.00;;;13.60
19040;BMP180;9652;49.014;12.052;2023-11-21T12:56:39;97403.00;;;13.50
19040;BMP180;9652;49.014;12.052;2023-11-21T12:59:08;97437.00;;;13.50
19040;BMP180;9652;49.014;12.052;2023-11-21T13:01:42;97432.00;;;13.40
19040;BMP180;9652;49.014;12.052;2023-11-21T13:04:09;97435.00;;;13.40
19040;BMP180;9652;49.014;12.052;2023-11-21T13:06:37;97432.00;;;13.30
19040;BMP180;9652;49.014;12.052;2023-11-21T13:09:07;97424.00;;;13.30
19040;BMP180;9652;49.014;12.052;2023-11-21T13:11:36;97447.00;;;13.20
19040;BMP180;9652;49.014;12.052;2023-11-21T13:14:08;97438.00;;;13.20
19040;BMP180;9652;49.014;12.052;2023-11-21T13:16:36;97449.00;;;13.20
19040;BMP180;9652;49.014;12.052;2023-11-21T13:19:04;97458.00;;;13.20
19040;BMP180;9652;49.014;12.052;2023-11-21T13:21:32;97447.00;;;13.20
19040;BMP180;9652;49.014;12.052;2023-11-21T13:23:59;97456.00;;;13.20
19040;BMP180;9652;49.014;12.052;2023-11-21T13:26:26;97456.00;;;13.10
19040;BMP180;9652;49.014;12.052;2023-11-21T13:28:53;97458.00;;;13.20
19040;BMP180;9652;49.014;12.052;2023-11-21T13:31:21;97424.00;;;13.20
19040;BMP180;9652;49.014;12.052;2023-11-21T13:33:52;97448.00;;;13.20
19040;BMP180;9652;49.014;12.052;2023-11-21T13:36:25;97464.00;;;13.20
19040;BMP180;9652;49.014;12.052;2023-11-21T13:38:56;97443.00;;;13.20
19040;BMP180;9652;49.014;12.052;2023-11-21T13:41:24;97471.00;;;13.20
19040;BMP180;9652;49.014;12.052;2023-11-21T13:43:56;97466.00;;;13.20
19040;BMP180;9652;49.014;12.052;2023-11-21T13:46:33;97486.00;;;13.20
19040;BMP180;9652;49.014;12.052;2023-11-21T13:49:02;97478.00;;;13.20
19040;BMP180;9652;49.014;12.052;2023-11-21T13:51:34;97487.00;;;13.20
19040;BMP180;9652;49.014;12.052;2023-11-21T13:54:06;97480.00;;;13.20
19040;BMP180;9652;49.014;12.052;2023-11-21T13:56:35;97485.00;;;13.20
19040;BMP180;9652;49.014;12.052;2023-11-21T13:59:03;97487.00;;;13.20
19040;BMP180;9652;49.014;12.052;2023-11-21T14:01:40;97484.00;;;13.20
19040;BMP180;9652;49.014;12.052;2023-11-21T14:04:26;97479.00;;;13.20
19040;BMP180;9652;49.014;12.052;2023-11-21T14:07:12;97443.00;;;13.20
19040;BMP180;9652;49.014;12.052;2023-11-21T14:09:51;97489.00;;;13.30
19040;BMP180;9652;49.014;12.052;2023-11-21T14:12:18;97412.00;;;13.30
19040;BMP180;9652;49.014;12.052;2023-11-21T14:14:45;97477.00;;;13.30
19040;BMP180;9652;49.014;12.052;2023-11-21T14:17:14;97469.00;;;13.30
19040;BMP180;9652;49.014;12.052;2023-11-21T14:19:42;97485.00;;;13.30